sensor_id;sensor_type;location;lat;lon;timestamp;pressure;altitude;pressure_sealevel;temperature;humidity
76011;BME280;64701;43.536;1.478;2022-12-07T00:00:39;99465.44;;;9.01;74.68
76011;BME280;64701;43.536;1.478;2022-12-07T00:03:04;99452.97;;;8.95;75.00
76011;BME280;64701;43.536;1.478;2022-12-07T00:05:30;99456.81;;;8.92;74.77
76011;BME280;64701;43.536;1.478;2022-12-07T00:07:55;99446.69;;;8.96;73.66
76011;BME280;64701;43.536;1.478;2022-12-07T00:10:20;99445.50;;;8.98;73.87
76011;BME280;64701;43.536;1.478;2022-12-07T00:12:46;99439.84;;;9.01;73.88
76011;BME280;64701;43.536;1.478;2022-12-07T00:15:11;99434.38;;;9.03;72.69
76011;BME280;64701;43.536;1.478;2022-12-07T00:17:36;99434.22;;;9.05;72.76
76011;BME280;64701;43.536;1.478;2022-12-07T00:20:02;99436.63;;;9.06;72.85
76011;BME280;64701;43.536;1.478;2022-12-07T00:22:27;99436.28;;;9.09;73.00
76011;BME280;64701;43.536;1.478;2022-12-07T00:24:52;99426.56;;;9.10;72.23
76011;BME280;64701;43.536;1.478;2022-12-07T00:27:18;99421.09;;;9.11;72.60
76011;BME280;64701;43.536;1.478;2022-12-07T00:29:43;99423.72;;;9.11;72.45
76011;BME280;64701;43.536;1.478;2022-12-07T00:32:08;99423.72;;;9.11;71.87
76011;BME280;64701;43.536;1.478;2022-12-07T00:34:33;99429.63;;;9.13;72.26
76011;BME280;64701;43.536;1.478;2022-12-07T00:36:59;99431.44;;;9.13;72.14
76011;BME280;64701;43.536;1.478;2022-12-07T00:39:24;99420.06;;;9.12;72.24
76011;BME280;64701;43.536;1.478;2022-12-07T00:41:49;99418.44;;;9.11;72.40
76011;BME280;64701;43.536;1.478;2022-12-07T00:44:14;99415.97;;;9.10;72.54
76011;BME280;64701;43.536;1.478;2022-12-07T00:46:40;99422.09;;;9.10;72.96
76011;BME280;64701;43.536;1.478;2022-12-07T00:49:05;99417.63;;;9.11;71.75
76011;BME280;64701;43.536;1.478;2022-12-07T00:51:30;99417.97;;;9.08;72.79
76011;BME280;64701;43.536;1.478;2022-12-07T00:53:56;99413.34;;;9.10;72.11
76011;BME280;64701;43.536;1.478;2022-12-07T00:56:25;99415.97;;;9.10;71.84
76011;BME280;64701;43.536;1.478;2022-12-07T00:58:55;99409.69;;;9.11;71.65
76011;BME280;64701;43.536;1.478;2022-12-07T01:01:21;99407.88;;;9.11;71.72
76011;BME280;64701;43.536;1.478;2022-12-07T01:03:46;99407.88;;;9.11;71.37
76011;BME280;64701;43.536;1.478;2022-12-07T01:06:16;99401.78;;;9.11;71.56
76011;BME280;64701;43.536;1.478;2022-12-07T01:08:41;99402.94;;;9.08;71.50
76011;BME280;64701;43.536;1.478;2022-12-07T01:11:07;99398.06;;;9.05;70.92
76011;BME280;64701;43.536;1.478;2022-12-07T01:13:33;99398.41;;;9.02;71.05
76011;BME280;64701;43.536;1.478;2022-12-07T01:16:00;99402.06;;;9.01;71.11
76011;BME280;64701;43.536;1.478;2022-12-07T01:18:29;99396.78;;;9.01;71.03
76011;BME280;64701;43.536;1.478;2022-12-07T01:23:23;99399.88;;;8.90;72.16
76011;BME280;64701;43.536;1.478;2022-12-07T01:25:53;99397.88;;;8.92;71.45
76011;BME280;64701;43.536;1.478;2022-12-07T01:28:19;99387.31;;;8.92;71.08
76011;BME280;64701;43.536;1.478;2022-12-07T01:30:44;99398.72;;;8.92;71.42
76011;BME280;64701;43.536;1.478;2022-12-07T01:33:09;99397.88;;;8.92;71.10
76011;BME280;64701;43.536;1.478;2022-12-07T01:35:35;99400.53;;;8.92;71.15
76011;BME280;64701;43.536;1.478;2022-12-07T01:38:00;99397.06;;;8.91;71.32
76011;BME280;64701;43.536;1.478;2022-12-07T01:40:25;99402.53;;;8.90;71.31
76011;BME280;64701;43.536;1.478;2022-12-07T01:42:50;99400.88;;;8.89;71.57
76011;BME280;64701;43.536;1.478;2022-12-07T01:47:41;99404.34;;;8.89;70.79
76011;BME280;64701;43.536;1.478;2022-12-07T01:50:08;99407.16;;;8.88;70.78
76011;BME280;64701;43.536;1.478;2022-12-07T01:52:33;99410.44;;;8.90;70.76
76011;BME280;64701;43.536;1.478;2022-12-07T01:55:02;99404.50;;;8.88;71.36
76011;BME280;64701;43.536;1.478;2022-12-07T01:57:29;99413.47;;;8.87;71.32
76011;BME280;64701;43.536;1.478;2022-12-07T01:59:56;99409.78;;;8.88;70.87
76011;BME280;64701;43.536;1.478;2022-12-07T02:03:05;99412.44;;;8.88;71.07
76011;BME280;64701;43.536;1.478;2022-12-07T02:05:10;99412.44;;;8.88;70.88
76011;BME280;64701;43.536;1.478;2022-12-07T02:07:36;99416.09;;;8.87;71.43
76011;BME280;64701;43.536;1.478;2022-12-07T02:12:58;99405.72;;;8.85;70.97
76011;BME280;64701;43.536;1.478;2022-12-07T02:15:29;99410.81;;;8.87;70.51
76011;BME280;64701;43.536;1.478;2022-12-07T02:18:01;99411.81;;;8.86;70.72
76011;BME280;64701;43.536;1.478;2022-12-07T02:20:39;99406.72;;;8.84;71.32
76011;BME280;64701;43.536;1.478;2022-12-07T02:28:37;99412.56;;;8.80;71.31
76011;BME280;64701;43.536;1.478;2022-12-07T02:31:08;99403.81;;;8.79;70.81
76011;BME280;64701;43.536;1.478;2022-12-07T02:33:36;99405.63;;;8.79;70.77
76011;BME280;64701;43.536;1.478;2022-12-07T02:36:06;99397.72;;;8.79;70.64
76011;BME280;64701;43.536;1.478;2022-12-07T02:44:03;99397.72;;;8.79;70.84
76011;BME280;64701;43.536;1.478;2022-12-07T02:46:22;99399.34;;;8.80;71.15
76011;BME280;64701;43.536;1.478;2022-12-07T02:48:48;99405.63;;;8.79;70.82
76011;BME280;64701;43.536;1.478;2022-12-07T02:51:14;99396.06;;;8.78;71.34
76011;BME280;64701;43.536;1.478;2022-12-07T02:53:42;99394.41;;;8.77;71.22
76011;BME280;64701;43.536;1.478;2022-12-07T02:56:34;99396.06;;;8.78;71.23
76011;BME280;64701;43.536;1.478;2022-12-07T03:06:57;99383.03;;;8.76;71.19
76011;BME280;64701;43.536;1.478;2022-12-07T03:12:29;99389.13;;;8.77;71.45
76011;BME280;64701;43.536;1.478;2022-12-07T03:15:01;99390.78;;;8.78;71.58
76011;BME280;64701;43.536;1.478;2022-12-07T03:17:27;99389.97;;;8.77;70.82
76011;BME280;64701;43.536;1.478;2022-12-07T03:19:54;99389.97;;;8.77;71.05
76011;BME280;64701;43.536;1.478;2022-12-07T03:22:22;99383.88;;;8.77;71.41
76011;BME280;64701;43.536;1.478;2022-12-07T03:24:52;99389.13;;;8.77;71.03
76011;BME280;64701;43.536;1.478;2022-12-07T03:27:20;99399.69;;;8.77;71.17
76011;BME280;64701;43.536;1.478;2022-12-07T03:29:50;99396.06;;;8.78;71.25
76011;BME280;64701;43.536;1.478;2022-12-07T03:32:52;99391.59;;;8.78;71.29
76011;BME280;64701;43.536;1.478;2022-12-07T03:35:13;99392.81;;;8.76;71.80
76011;BME280;64701;43.536;1.478;2022-12-07T03:40:15;99397.06;;;8.77;71.70
76011;BME280;64701;43.536;1.478;2022-12-07T03:42:42;99397.06;;;8.77;71.73
76011;BME280;64701;43.536;1.478;2022-12-07T03:45:08;99398.69;;;8.78;71.57
76011;BME280;64701;43.536;1.478;2022-12-07T03:50:34;99387.53;;;8.76;72.12
76011;BME280;64701;43.536;1.478;2022-12-07T03:53:03;99380.59;;;8.75;72.00
76011;BME280;64701;43.536;1.478;2022-12-07T03:55:31;99382.25;;;8.76;71.76
76011;BME280;64701;43.536;1.478;2022-12-07T03:58:05;99382.44;;;8.74;72.12
76011;BME280;64701;43.536;1.478;2022-12-07T04:00:32;99383.25;;;8.75;71.60
76011;BME280;64701;43.536;1.478;2022-12-07T04:02:57;99382.25;;;8.76;71.85
76011;BME280;64701;43.536;1.478;2022-12-07T04:05:23;99380.97;;;8.72;72.10
76011;BME280;64701;43.536;1.478;2022-12-07T04:07:48;99377.69;;;8.70;71.77
76011;BME280;64701;43.536;1.478;2022-12-07T04:10:14;99376.69;;;8.71;71.55
76011;BME280;64701;43.536;1.478;2022-12-07T04:12:39;99376.50;;;8.72;71.93
76011;BME280;64701;43.536;1.478;2022-12-07T04:15:04;99374.69;;;8.73;71.64
76011;BME280;64701;43.536;1.478;2022-12-07T04:17:30;99373.69;;;8.74;72.07
76011;BME280;64701;43.536;1.478;2022-12-07T04:19:55;99380.59;;;8.75;71.76
76011;BME280;64701;43.536;1.478;2022-12-07T04:22:20;99374.50;;;8.74;72.09
76011;BME280;64701;43.536;1.478;2022-12-07T04:24:46;99360.66;;;8.72;72.55
76011;BME280;64701;43.536;1.478;2022-12-07T04:27:11;99366.75;;;8.73;71.95
76011;BME280;64701;43.536;1.478;2022-12-07T04:29:36;99365.13;;;8.72;71.90
76011;BME280;64701;43.536;1.478;2022-12-07T04:32:02;99365.94;;;8.72;72.12
76011;BME280;64701;43.536;1.478;2022-12-07T04:34:27;99363.13;;;8.74;72.20
76011;BME280;64701;43.536;1.478;2022-12-07T04:36:52;99367.41;;;8.75;72.25
76011;BME280;64701;43.536;1.478;2022-12-07T04:39:22;99370.03;;;8.75;72.52
76011;BME280;64701;43.536;1.478;2022-12-07T04:41:47;99367.19;;;8.76;72.24
76011;BME280;64701;43.536;1.478;2022-12-07T04:44:13;99366.41;;;8.76;72.47
76011;BME280;64701;43.536;1.478;2022-12-07T04:46:39;99370.88;;;8.75;72.19
76011;BME280;64701;43.536;1.478;2022-12-07T04:49:05;99368.84;;;8.77;72.08
76011;BME280;64701;43.536;1.478;2022-12-07T04:51:30;99366.22;;;8.77;72.03
76011;BME280;64701;43.536;1.478;2022-12-07T04:53:55;99363.56;;;8.77;72.22
76011;BME280;64701;43.536;1.478;2022-12-07T04:56:21;99368.84;;;8.77;72.37
76011;BME280;64701;43.536;1.478;2022-12-07T04:58:47;99365.38;;;8.77;72.58
76011;BME280;64701;43.536;1.478;2022-12-07T05:01:13;99361.13;;;8.76;73.15
76011;BME280;64701;43.536;1.478;2022-12-07T05:03:39;99364.13;;;8.73;72.94
76011;BME280;64701;43.536;1.478;2022-12-07T05:06:05;99385.06;;;8.74;73.49
76011;BME280;64701;43.536;1.478;2022-12-07T05:08:31;99378.97;;;8.74;73.57
76011;BME280;64701;43.536;1.478;2022-12-07T05:10:56;99369.41;;;8.73;73.74
76011;BME280;64701;43.536;1.478;2022-12-07T05:13:22;99370.94;;;8.67;75.45
76011;BME280;64701;43.536;1.478;2022-12-07T05:15:47;99370.22;;;8.58;76.72
76011;BME280;64701;43.536;1.478;2022-12-07T05:18:13;99371.41;;;8.56;76.86
76011;BME280;64701;43.536;1.478;2022-12-07T05:20:39;99365.31;;;8.55;76.72
76011;BME280;64701;43.536;1.478;2022-12-07T05:23:04;99358.78;;;8.51;77.14
76011;BME280;64701;43.536;1.478;2022-12-07T05:25:30;99365.75;;;8.59;75.93
76011;BME280;64701;43.536;1.478;2022-12-07T05:27:55;99364.59;;;8.62;76.80
76011;BME280;64701;43.536;1.478;2022-12-07T05:30:21;99358.50;;;8.61;77.10
76011;BME280;64701;43.536;1.478;2022-12-07T05:32:47;99366.97;;;8.56;78.13
76011;BME280;64701;43.536;1.478;2022-12-07T05:35:12;99359.66;;;8.58;78.32
76011;BME280;64701;43.536;1.478;2022-12-07T05:37:37;99354.03;;;8.62;77.43
76011;BME280;64701;43.536;1.478;2022-12-07T05:40:03;99353.31;;;8.68;76.13
76011;BME280;64701;43.536;1.478;2022-12-07T05:42:28;99349.28;;;8.72;77.41
76011;BME280;64701;43.536;1.478;2022-12-07T05:44:54;99345.66;;;8.73;77.09
76011;BME280;64701;43.536;1.478;2022-12-07T05:47:19;99352.19;;;8.77;76.19
76011;BME280;64701;43.536;1.478;2022-12-07T05:49:44;99351.84;;;8.80;76.09
76011;BME280;64701;43.536;1.478;2022-12-07T05:52:09;99352.28;;;8.83;76.49
76011;BME280;64701;43.536;1.478;2022-12-07T05:54:35;99351.09;;;8.86;75.86
76011;BME280;64701;43.536;1.478;2022-12-07T05:57:00;99351.91;;;8.86;76.33
76011;BME280;64701;43.536;1.478;2022-12-07T05:59:25;99349.06;;;8.88;75.84
76011;BME280;64701;43.536;1.478;2022-12-07T06:04:17;99358.63;;;8.89;75.97
76011;BME280;64701;43.536;1.478;2022-12-07T06:06:43;99357.63;;;8.90;75.61
76011;BME280;64701;43.536;1.478;2022-12-07T06:09:08;99357.28;;;8.93;75.49
76011;BME280;64701;43.536;1.478;2022-12-07T06:11:34;99354.66;;;8.93;75.46
76011;BME280;64701;43.536;1.478;2022-12-07T06:14:17;99351.53;;;8.89;75.76
76011;BME280;64701;43.536;1.478;2022-12-07T06:16:43;99352.53;;;8.88;75.52
76011;BME280;64701;43.536;1.478;2022-12-07T06:19:08;99348.28;;;8.87;75.56
76011;BME280;64701;43.536;1.478;2022-12-07T06:21:33;99358.03;;;8.87;75.81
76011;BME280;64701;43.536;1.478;2022-12-07T06:23:58;99358.03;;;8.87;75.31
76011;BME280;64701;43.536;1.478;2022-12-07T06:26:24;99362.00;;;8.83;76.20
76011;BME280;64701;43.536;1.478;2022-12-07T06:28:49;99350.84;;;8.81;75.42
76011;BME280;64701;43.536;1.478;2022-12-07T06:31:14;99353.47;;;8.81;75.66
76011;BME280;64701;43.536;1.478;2022-12-07T06:33:40;99346.38;;;8.81;75.48
76011;BME280;64701;43.536;1.478;2022-12-07T06:36:05;99353.56;;;8.73;76.36
76011;BME280;64701;43.536;1.478;2022-12-07T06:38:31;99345.66;;;8.73;75.28
76011;BME280;64701;43.536;1.478;2022-12-07T06:40:56;99343.81;;;8.73;74.92
76011;BME280;64701;43.536;1.478;2022-12-07T06:43:21;99350.94;;;8.73;75.00
76011;BME280;64701;43.536;1.478;2022-12-07T06:45:47;99350.09;;;8.72;74.86
76011;BME280;64701;43.536;1.478;2022-12-07T06:48:12;99347.47;;;8.72;74.79
76011;BME280;64701;43.536;1.478;2022-12-07T06:50:37;99346.47;;;8.73;74.90
76011;BME280;64701;43.536;1.478;2022-12-07T06:53:02;99346.47;;;8.73;75.34
76011;BME280;64701;43.536;1.478;2022-12-07T06:55:28;99344.81;;;8.72;75.09
76011;BME280;64701;43.536;1.478;2022-12-07T06:57:53;99348.47;;;8.71;75.01
76011;BME280;64701;43.536;1.478;2022-12-07T07:00:18;99343.38;;;8.70;75.26
76011;BME280;64701;43.536;1.478;2022-12-07T07:02:44;99335.81;;;8.67;75.69
76011;BME280;64701;43.536;1.478;2022-12-07T07:05:09;99338.63;;;8.65;75.07
76011;BME280;64701;43.536;1.478;2022-12-07T07:07:34;99348.38;;;8.65;75.16
76011;BME280;64701;43.536;1.478;2022-12-07T07:10:00;99346.75;;;8.64;75.17
76011;BME280;64701;43.536;1.478;2022-12-07T07:12:25;99342.66;;;8.61;75.29
76011;BME280;64701;43.536;1.478;2022-12-07T07:14:50;99341.84;;;8.60;75.04
76011;BME280;64701;43.536;1.478;2022-12-07T07:17:16;99348.94;;;8.60;74.97
76011;BME280;64701;43.536;1.478;2022-12-07T07:19:41;99349.09;;;8.58;75.14
76011;BME280;64701;43.536;1.478;2022-12-07T07:22:06;99343.22;;;8.56;75.26
76011;BME280;64701;43.536;1.478;2022-12-07T07:24:32;99347.03;;;8.54;75.15
76011;BME280;64701;43.536;1.478;2022-12-07T07:26:57;99353.50;;;8.51;75.23
76011;BME280;64701;43.536;1.478;2022-12-07T07:29:22;99348.22;;;8.51;75.47
76011;BME280;64701;43.536;1.478;2022-12-07T07:31:47;99358.78;;;8.51;75.54
76011;BME280;64701;43.536;1.478;2022-12-07T07:34:13;99361.59;;;8.50;75.51
76011;BME280;64701;43.536;1.478;2022-12-07T07:36:38;99359.94;;;8.49;75.35
76011;BME280;64701;43.536;1.478;2022-12-07T07:39:03;99361.59;;;8.50;75.50
76011;BME280;64701;43.536;1.478;2022-12-07T07:41:30;99364.06;;;8.51;75.42
76011;BME280;64701;43.536;1.478;2022-12-07T07:43:55;99368.94;;;8.54;75.75
76011;BME280;64701;43.536;1.478;2022-12-07T07:46:20;99374.22;;;8.54;76.15
76011;BME280;64701;43.536;1.478;2022-12-07T07:48:46;99372.25;;;8.56;76.20
76011;BME280;64701;43.536;1.478;2022-12-07T07:51:11;99374.50;;;8.59;75.80
76011;BME280;64701;43.536;1.478;2022-12-07T07:53:36;99361.94;;;8.62;75.65
76011;BME280;64701;43.536;1.478;2022-12-07T07:56:02;99365.84;;;8.66;75.79
76011;BME280;64701;43.536;1.478;2022-12-07T07:58:27;99370.78;;;8.69;76.11
76011;BME280;64701;43.536;1.478;2022-12-07T08:00:53;99370.56;;;8.70;76.49
76011;BME280;64701;43.536;1.478;2022-12-07T08:03:18;99374.03;;;8.71;77.14
76011;BME280;64701;43.536;1.478;2022-12-07T08:05:43;99377.31;;;8.73;76.61
76011;BME280;64701;43.536;1.478;2022-12-07T08:08:08;99374.34;;;8.76;77.41
76011;BME280;64701;43.536;1.478;2022-12-07T08:10:34;99374.59;;;8.81;76.66
76011;BME280;64701;43.536;1.478;2022-12-07T08:13:00;99375.84;;;8.85;76.38
76011;BME280;64701;43.536;1.478;2022-12-07T08:15:41;99376.75;;;8.92;76.05
76011;BME280;64701;43.536;1.478;2022-12-07T08:18:07;99373.81;;;9.01;76.00
76011;BME280;64701;43.536;1.478;2022-12-07T08:20:34;99373.34;;;9.13;75.84
76011;BME280;64701;43.536;1.478;2022-12-07T08:23:00;99379.28;;;9.36;75.95
76011;BME280;64701;43.536;1.478;2022-12-07T08:25:25;99373.22;;;9.57;76.02
76011;BME280;64701;43.536;1.478;2022-12-07T08:27:51;99372.94;;;9.73;75.81
76011;BME280;64701;43.536;1.478;2022-12-07T08:30:16;99375.28;;;9.82;75.44
76011;BME280;64701;43.536;1.478;2022-12-07T08:32:43;99381.25;;;9.91;74.85
76011;BME280;64701;43.536;1.478;2022-12-07T08:35:09;99373.56;;;9.96;74.10
76011;BME280;64701;43.536;1.478;2022-12-07T08:37:35;99380.72;;;10.02;74.12
76011;BME280;64701;43.536;1.478;2022-12-07T08:40:00;99394.47;;;10.12;74.39
76011;BME280;64701;43.536;1.478;2022-12-07T08:42:25;99382.97;;;10.27;74.49
76011;BME280;64701;43.536;1.478;2022-12-07T08:44:55;99379.38;;;10.34;73.42
76011;BME280;64701;43.536;1.478;2022-12-07T08:47:20;99381.94;;;10.55;73.54
76011;BME280;64701;43.536;1.478;2022-12-07T08:49:46;99378.91;;;10.99;73.34
76011;BME280;64701;43.536;1.478;2022-12-07T08:52:12;99379.00;;;11.32;72.76
76011;BME280;64701;43.536;1.478;2022-12-07T08:54:38;99378.91;;;11.60;71.79
76011;BME280;64701;43.536;1.478;2022-12-07T08:57:05;99381.38;;;11.81;70.90
76011;BME280;64701;43.536;1.478;2022-12-07T08:59:31;99378.53;;;12.16;70.70
76011;BME280;64701;43.536;1.478;2022-12-07T09:01:58;99375.03;;;12.35;68.73
76011;BME280;64701;43.536;1.478;2022-12-07T09:04:23;99378.66;;;12.74;69.37
76011;BME280;64701;43.536;1.478;2022-12-07T09:06:48;99381.81;;;13.15;66.75
76011;BME280;64701;43.536;1.478;2022-12-07T09:09:14;99382.28;;;13.37;67.60
76011;BME280;64701;43.536;1.478;2022-12-07T09:11:39;99382.06;;;13.45;66.92
76011;BME280;64701;43.536;1.478;2022-12-07T09:14:05;99381.75;;;13.60;64.67
76011;BME280;64701;43.536;1.478;2022-12-07T09:16:30;99379.09;;;13.60;66.13
76011;BME280;64701;43.536;1.478;2022-12-07T09:18:55;99373.91;;;13.71;66.27
76011;BME280;64701;43.536;1.478;2022-12-07T09:21:21;99369.09;;;13.86;66.08
76011;BME280;64701;43.536;1.478;2022-12-07T09:23:46;99365.78;;;14.41;65.99
76011;BME280;64701;43.536;1.478;2022-12-07T09:26:11;99371.28;;;15.00;64.16
76011;BME280;64701;43.536;1.478;2022-12-07T09:28:37;99370.41;;;15.66;63.44
76011;BME280;64701;43.536;1.478;2022-12-07T09:31:02;99361.34;;;16.20;61.87
76011;BME280;64701;43.536;1.478;2022-12-07T09:33:28;99366.31;;;16.63;60.29
76011;BME280;64701;43.536;1.478;2022-12-07T09:35:53;99362.56;;;16.88;59.88
76011;BME280;64701;43.536;1.478;2022-12-07T09:38:19;99364.19;;;17.29;57.55
76011;BME280;64701;43.536;1.478;2022-12-07T09:40:45;99366.81;;;17.40;57.48
76011;BME280;64701;43.536;1.478;2022-12-07T09:43:28;99367.16;;;17.44;57.83
76011;BME280;64701;43.536;1.478;2022-12-07T09:45:54;99367.22;;;17.32;57.31
76011;BME280;64701;43.536;1.478;2022-12-07T09:48:21;99372.25;;;17.17;58.04
76011;BME280;64701;43.536;1.478;2022-12-07T09:50:47;99376.38;;;17.08;58.30
76011;BME280;64701;43.536;1.478;2022-12-07T09:53:15;99379.31;;;16.95;56.67
76011;BME280;64701;43.536;1.478;2022-12-07T09:55:41;99381.78;;;16.73;57.87
76011;BME280;64701;43.536;1.478;2022-12-07T09:58:17;99375.97;;;16.76;58.62
76011;BME280;64701;43.536;1.478;2022-12-07T10:00:44;99370.94;;;16.91;58.30
76011;BME280;64701;43.536;1.478;2022-12-07T10:03:10;99370.88;;;17.14;57.79
76011;BME280;64701;43.536;1.478;2022-12-07T10:05:37;99370.34;;;17.29;57.21
76011;BME280;64701;43.536;1.478;2022-12-07T10:08:05;99374.63;;;17.59;57.32
76011;BME280;64701;43.536;1.478;2022-12-07T10:10:31;99366.63;;;17.87;56.38
76011;BME280;64701;43.536;1.478;2022-12-07T10:15:22;99371.97;;;18.20;51.98
76011;BME280;64701;43.536;1.478;2022-12-07T10:17:48;99372.91;;;18.31;55.10
76011;BME280;64701;43.536;1.478;2022-12-07T10:20:15;99372.41;;;18.51;52.97
76011;BME280;64701;43.536;1.478;2022-12-07T10:22:54;99370.72;;;18.83;54.43
76011;BME280;64701;43.536;1.478;2022-12-07T10:25:21;99369.88;;;18.99;51.37
76011;BME280;64701;43.536;1.478;2022-12-07T10:30:30;99351.13;;;19.48;49.16
76011;BME280;64701;43.536;1.478;2022-12-07T10:32:56;99348.88;;;19.98;51.18
76011;BME280;64701;43.536;1.478;2022-12-07T10:35:28;99342.25;;;20.43;48.59
76011;BME280;64701;43.536;1.478;2022-12-07T10:37:54;99338.41;;;20.86;46.76
76011;BME280;64701;43.536;1.478;2022-12-07T10:48:35;99336.00;;;23.07;46.44
76011;BME280;64701;43.536;1.478;2022-12-07T10:53:44;99326.59;;;23.88;43.43
76011;BME280;64701;43.536;1.478;2022-12-07T11:01:23;99312.72;;;24.52;41.56
76011;BME280;64701;43.536;1.478;2022-12-07T11:06:27;99303.31;;;24.68;35.38
76011;BME280;64701;43.536;1.478;2022-12-07T11:11:44;99301.34;;;24.50;32.41
76011;BME280;64701;43.536;1.478;2022-12-07T11:14:19;99289.63;;;25.21;40.07
76011;BME280;64701;43.536;1.478;2022-12-07T11:16:55;99295.50;;;25.66;39.98
76011;BME280;64701;43.536;1.478;2022-12-07T11:24:19;99286.44;;;26.62;39.12
76011;BME280;64701;43.536;1.478;2022-12-07T11:35:11;99264.03;;;29.22;35.12
76011;BME280;64701;43.536;1.478;2022-12-07T11:37:13;99257.47;;;29.67;31.23
76011;BME280;64701;43.536;1.478;2022-12-07T11:40:00;99261.63;;;30.28;32.83
76011;BME280;64701;43.536;1.478;2022-12-07T11:42:27;99254.22;;;30.28;29.64
76011;BME280;64701;43.536;1.478;2022-12-07T11:45:10;99263.69;;;30.98;31.80
76011;BME280;64701;43.536;1.478;2022-12-07T11:50:23;99257.94;;;31.86;25.07
76011;BME280;64701;43.536;1.478;2022-12-07T11:55:22;99238.97;;;33.15;25.80
76011;BME280;64701;43.536;1.478;2022-12-07T11:57:51;99246.13;;;33.72;27.54
76011;BME280;64701;43.536;1.478;2022-12-07T12:00:17;99245.44;;;34.06;25.61
76011;BME280;64701;43.536;1.478;2022-12-07T12:02:59;99241.97;;;34.56;26.01
76011;BME280;64701;43.536;1.478;2022-12-07T12:05:27;99236.81;;;35.05;25.01
76011;BME280;64701;43.536;1.478;2022-12-07T12:10:29;99234.06;;;35.63;25.03
76011;BME280;64701;43.536;1.478;2022-12-07T12:13:47;99237.72;;;36.13;24.67
76011;BME280;64701;43.536;1.478;2022-12-07T12:15:57;99228.47;;;36.01;24.60
76011;BME280;64701;43.536;1.478;2022-12-07T12:18:39;99217.34;;;36.44;23.72
76011;BME280;64701;43.536;1.478;2022-12-07T12:21:19;99216.25;;;36.48;21.36
76011;BME280;64701;43.536;1.478;2022-12-07T12:26:19;99211.66;;;37.12;22.72
76011;BME280;64701;43.536;1.478;2022-12-07T12:31:14;99201.84;;;37.51;20.79
76011;BME280;64701;43.536;1.478;2022-12-07T12:33:44;99201.66;;;37.71;21.96
76011;BME280;64701;43.536;1.478;2022-12-07T12:39:07;99183.44;;;37.29;20.90
76011;BME280;64701;43.536;1.478;2022-12-07T12:51:44;99187.22;;;38.35;21.17
76011;BME280;64701;43.536;1.478;2022-12-07T12:54:15;99184.38;;;38.28;20.40
76011;BME280;64701;43.536;1.478;2022-12-07T12:56:49;99180.03;;;38.27;19.82
76011;BME280;64701;43.536;1.478;2022-12-07T13:01:43;99174.13;;;37.85;19.26
76011;BME280;64701;43.536;1.478;2022-12-07T13:07:00;99162.84;;;37.56;19.00
76011;BME280;64701;43.536;1.478;2022-12-07T13:09:26;99159.16;;;37.86;20.53
76011;BME280;64701;43.536;1.478;2022-12-07T13:11:57;99155.22;;;37.87;18.94
76011;BME280;64701;43.536;1.478;2022-12-07T13:19:54;99144.53;;;37.85;18.14
76011;BME280;64701;43.536;1.478;2022-12-07T13:24:57;99139.66;;;37.31;19.70
76011;BME280;64701;43.536;1.478;2022-12-07T13:27:24;99140.53;;;37.39;19.97
76011;BME280;64701;43.536;1.478;2022-12-07T13:29:50;99139.66;;;37.31;19.85
76011;BME280;64701;43.536;1.478;2022-12-07T13:32:26;99134.75;;;37.14;20.32
76011;BME280;64701;43.536;1.478;2022-12-07T13:34:51;99136.81;;;37.57;20.01
76011;BME280;64701;43.536;1.478;2022-12-07T13:39:45;99138.31;;;37.99;17.79
76011;BME280;64701;43.536;1.478;2022-12-07T13:42:30;99129.38;;;38.13;19.85
76011;BME280;64701;43.536;1.478;2022-12-07T13:44:57;99124.84;;;37.50;18.86
76011;BME280;64701;43.536;1.478;2022-12-07T13:47:41;99118.50;;;36.75;19.26
76011;BME280;64701;43.536;1.478;2022-12-07T13:50:25;99104.75;;;36.79;20.37
76011;BME280;64701;43.536;1.478;2022-12-07T13:52:54;99114.28;;;36.55;20.40
76011;BME280;64701;43.536;1.478;2022-12-07T13:55:20;99111.06;;;36.79;20.52
76011;BME280;64701;43.536;1.478;2022-12-07T13:57:47;99109.22;;;36.61;19.59
76011;BME280;64701;43.536;1.478;2022-12-07T14:00:15;99097.44;;;36.94;20.60
76011;BME280;64701;43.536;1.478;2022-12-07T14:02:58;99099.66;;;36.81;20.37
76011;BME280;64701;43.536;1.478;2022-12-07T14:05:25;99104.38;;;36.80;20.29
76011;BME280;64701;43.536;1.478;2022-12-07T14:10:27;99101.31;;;36.59;21.03
76011;BME280;64701;43.536;1.478;2022-12-07T14:12:52;99106.00;;;36.25;20.74
76011;BME280;64701;43.536;1.478;2022-12-07T14:15:22;99106.34;;;35.52;21.16
76011;BME280;64701;43.536;1.478;2022-12-07T14:17:51;99109.75;;;33.95;21.17
76011;BME280;64701;43.536;1.478;2022-12-07T14:22:55;99106.41;;;31.82;24.02
76011;BME280;64701;43.536;1.478;2022-12-07T14:25:21;99112.97;;;30.79;24.87
76011;BME280;64701;43.536;1.478;2022-12-07T14:27:49;99106.63;;;30.16;25.52
76011;BME280;64701;43.536;1.478;2022-12-07T14:30:15;99101.00;;;29.45;26.59
76011;BME280;64701;43.536;1.478;2022-12-07T14:32:40;99102.38;;;28.70;27.31
76011;BME280;64701;43.536;1.478;2022-12-07T14:35:10;99103.59;;;27.73;28.35
76011;BME280;64701;43.536;1.478;2022-12-07T14:37:36;99100.72;;;26.72;29.92
76011;BME280;64701;43.536;1.478;2022-12-07T14:40:01;99109.28;;;25.75;30.16
76011;BME280;64701;43.536;1.478;2022-12-07T14:42:28;99104.56;;;24.69;31.18
76011;BME280;64701;43.536;1.478;2022-12-07T14:44:53;99100.78;;;23.85;32.42
76011;BME280;64701;43.536;1.478;2022-12-07T14:47:19;99107.91;;;23.24;33.58
76011;BME280;64701;43.536;1.478;2022-12-07T14:49:44;99099.19;;;22.64;34.44
76011;BME280;64701;43.536;1.478;2022-12-07T14:54:44;99094.59;;;21.21;36.39
76011;BME280;64701;43.536;1.478;2022-12-07T14:57:09;99097.53;;;20.89;36.66
76011;BME280;64701;43.536;1.478;2022-12-07T14:59:36;99094.81;;;20.53;37.72
76011;BME280;64701;43.536;1.478;2022-12-07T15:02:01;99091.72;;;20.09;38.40
76011;BME280;64701;43.536;1.478;2022-12-07T15:04:26;99096.13;;;19.73;38.91
76011;BME280;64701;43.536;1.478;2022-12-07T15:06:56;99098.09;;;19.41;40.25
76011;BME280;64701;43.536;1.478;2022-12-07T15:09:21;99091.41;;;19.06;39.44
76011;BME280;64701;43.536;1.478;2022-12-07T15:11:47;99098.72;;;18.84;39.71
76011;BME280;64701;43.536;1.478;2022-12-07T15:14:12;99092.13;;;18.65;40.51